sensor_id;sensor_type;location;lat;lon;timestamp;P1;durP1;ratioP1;P2;durP2;ratioP2
31724;SDS011;18306;40.960;14.836;2023-11-21T00:00:14;10.43;;;3.30;;
31724;SDS011;18306;40.960;14.836;2023-11-21T00:02:42;21.58;;;9.88;;
31724;SDS011;18306;40.960;14.836;2023-11-21T00:05:14;20.98;;;7.80;;
31724;SDS011;18306;40.960;14.836;2023-11-21T00:07:47;7.22;;;1.83;;
31724;SDS011;18306;40.960;14.836;2023-11-21T00:10:13;1.45;;;1.05;;
31724;SDS011;18306;40.960;14.836;2023-11-21T00:12:42;16.13;;;5.65;;
31724;SDS011;18306;40.960;14.836;2023-11-21T00:15:09;3.42;;;1.27;;
31724;SDS011;18306;40.960;14.836;2023-11-21T00:17:39;4.07;;;1.50;;
31724;SDS011;18306;40.960;14.836;2023-11-21T00:20:07;2.03;;;0.80;;
31724;SDS011;18306;40.960;14.836;2023-11-21T00:22:35;0.75;;;0.50;;
31724;SDS011;18306;40.960;14.836;2023-11-21T00:25:02;1.50;;;1.00;;
31724;SDS011;18306;40.960;14.836;2023-11-21T00:27:31;1.45;;;0.65;;
31724;SDS011;18306;40.960;14.836;2023-11-21T00:29:58;3.75;;;1.63;;
31724;SDS011;18306;40.960;14.836;2023-11-21T00:32:25;1.10;;;0.50;;
31724;SDS011;18306;40.960;14.836;2023-11-21T00:34:52;19.50;;;7.88;;
31724;SDS011;18306;40.960;14.836;2023-11-21T00:37:21;21.00;;;7.40;;
31724;SDS011;18306;40.960;14.836;2023-11-21T00:39:50;1.98;;;1.40;;
31724;SDS011;18306;40.960;14.836;2023-11-21T00:42:17;20.40;;;7.10;;
31724;SDS011;18306;40.960;14.836;2023-11-21T00:44:44;4.40;;;2.25;;
31724;SDS011;18306;40.960;14.836;2023-11-21T00:47:12;7.57;;;2.30;;
31724;SDS011;18306;40.960;14.836;2023-11-21T00:49:40;1.95;;;1.05;;
31724;SDS011;18306;40.960;14.836;2023-11-21T00:52:09;1.73;;;0.93;;
31724;SDS011;18306;40.960;14.836;2023-11-21T00:54:36;2.40;;;1.33;;
31724;SDS011;18306;40.960;14.836;2023-11-21T00:57:03;2.88;;;1.65;;
31724;SDS011;18306;40.960;14.836;2023-11-21T00:59:30;6.00;;;2.58;;
31724;SDS011;18306;40.960;14.836;2023-11-21T01:01:57;1.55;;;1.38;;
31724;SDS011;18306;40.960;14.836;2023-11-21T01:04:26;4.72;;;2.17;;
31724;SDS011;18306;40.960;14.836;2023-11-21T01:06:54;1.83;;;1.42;;
31724;SDS011;18306;40.960;14.836;2023-11-21T01:09:21;8.55;;;1.75;;
31724;SDS011;18306;40.960;14.836;2023-11-21T01:11:48;4.50;;;2.05;;
31724;SDS011;18306;40.960;14.836;2023-11-21T01:14:15;5.88;;;2.60;;
31724;SDS011;18306;40.960;14.836;2023-11-21T01:16:43;1.60;;;1.30;;
31724;SDS011;18306;40.960;14.836;2023-11-21T01:19:10;3.33;;;1.60;;
31724;SDS011;18306;40.960;14.836;2023-11-21T01:21:37;9.25;;;1.58;;
31724;SDS011;18306;40.960;14.836;2023-11-21T01:24:04;2.40;;;1.42;;
31724;SDS011;18306;40.960;14.836;2023-11-21T01:26:33;3.53;;;1.70;;
31724;SDS011;18306;40.960;14.836;2023-11-21T01:29:01;2.97;;;1.60;;
31724;SDS011;18306;40.960;14.836;2023-11-21T01:31:28;2.85;;;1.02;;
31724;SDS011;18306;40.960;14.836;2023-11-21T01:33:56;0.50;;;0.50;;
31724;SDS011;18306;40.960;14.836;2023-11-21T01:36:23;3.88;;;1.95;;
31724;SDS011;18306;40.960;14.836;2023-11-21T01:38:56;2.95;;;1.58;;
31724;SDS011;18306;40.960;14.836;2023-11-21T01:41:26;5.47;;;2.20;;
31724;SDS011;18306;40.960;14.836;2023-11-21T01:43:53;1.95;;;0.85;;
31724;SDS011;18306;40.960;14.836;2023-11-21T01:46:24;5.00;;;0.70;;
31724;SDS011;18306;40.960;14.836;2023-11-21T01:48:51;5.53;;;2.35;;
31724;SDS011;18306;40.960;14.836;2023-11-21T01:51:20;7.80;;;1.50;;
31724;SDS011;18306;40.960;14.836;2023-11-21T01:53:47;0.52;;;0.52;;
31724;SDS011;18306;40.960;14.836;2023-11-21T01:56:15;0.50;;;0.50;;
31724;SDS011;18306;40.960;14.836;2023-11-21T01:58:43;0.63;;;0.63;;
31724;SDS011;18306;40.960;14.836;2023-11-21T02:01:12;1.77;;;0.85;;
31724;SDS011;18306;40.960;14.836;2023-11-21T02:03:40;1.30;;;0.68;;
31724;SDS011;18306;40.960;14.836;2023-11-21T02:06:08;1.90;;;0.57;;
31724;SDS011;18306;40.960;14.836;2023-11-21T02:08:35;4.35;;;0.80;;
31724;SDS011;18306;40.960;14.836;2023-11-21T02:11:04;0.82;;;0.80;;
31724;SDS011;18306;40.960;14.836;2023-11-21T02:13:31;1.27;;;0.85;;
31724;SDS011;18306;40.960;14.836;2023-11-21T02:15:59;1.95;;;0.75;;
31724;SDS011;18306;40.960;14.836;2023-11-21T02:18:26;2.00;;;0.40;;
31724;SDS011;18306;40.960;14.836;2023-11-21T02:20:55;0.57;;;0.40;;
31724;SDS011;18306;40.960;14.836;2023-11-21T02:23:22;5.78;;;0.85;;
31724;SDS011;18306;40.960;14.836;2023-11-21T02:25:54;0.88;;;0.82;;
31724;SDS011;18306;40.960;14.836;2023-11-21T02:28:22;1.83;;;0.70;;
31724;SDS011;18306;40.960;14.836;2023-11-21T02:30:52;6.38;;;1.15;;
31724;SDS011;18306;40.960;14.836;2023-11-21T02:33:21;2.45;;;1.08;;
31724;SDS011;18306;40.960;14.836;2023-11-21T02:35:49;2.92;;;0.93;;
31724;SDS011;18306;40.960;14.836;2023-11-21T02:38:17;0.88;;;0.68;;
31724;SDS011;18306;40.960;14.836;2023-11-21T02:40:45;3.45;;;0.80;;
31724;SDS011;18306;40.960;14.836;2023-11-21T02:43:12;2.28;;;1.20;;
31724;SDS011;18306;40.960;14.836;2023-11-21T02:45:39;1.92;;;0.85;;
31724;SDS011;18306;40.960;14.836;2023-11-21T02:48:08;2.47;;;1.45;;
31724;SDS011;18306;40.960;14.836;2023-11-21T02:50:35;9.57;;;2.42;;
31724;SDS011;18306;40.960;14.836;2023-11-21T02:53:03;1.52;;;1.15;;
31724;SDS011;18306;40.960;14.836;2023-11-21T02:55:32;1.10;;;1.00;;
31724;SDS011;18306;40.960;14.836;2023-11-21T02:58:01;3.63;;;1.13;;
31724;SDS011;18306;40.960;14.836;2023-11-21T03:00:32;4.22;;;1.08;;
31724;SDS011;18306;40.960;14.836;2023-11-21T03:02:59;3.08;;;1.50;;
31724;SDS011;18306;40.960;14.836;2023-11-21T03:05:26;2.50;;;1.17;;
31724;SDS011;18306;40.960;14.836;2023-11-21T03:07:55;4.50;;;1.55;;
31724;SDS011;18306;40.960;14.836;2023-11-21T03:10:22;3.03;;;1.48;;
31724;SDS011;18306;40.960;14.836;2023-11-21T03:12:49;5.45;;;1.23;;
31724;SDS011;18306;40.960;14.836;2023-11-21T03:15:16;3.05;;;1.67;;
31724;SDS011;18306;40.960;14.836;2023-11-21T03:17:43;2.90;;;1.05;;
31724;SDS011;18306;40.960;14.836;2023-11-21T03:20:11;1.20;;;0.82;;
31724;SDS011;18306;40.960;14.836;2023-11-21T03:22:40;2.20;;;1.05;;
31724;SDS011;18306;40.960;14.836;2023-11-21T03:25:07;6.25;;;1.20;;
31724;SDS011;18306;40.960;14.836;2023-11-21T03:27:37;5.50;;;0.47;;
31724;SDS011;18306;40.960;14.836;2023-11-21T03:30:07;1.27;;;0.95;;
31724;SDS011;18306;40.960;14.836;2023-11-21T03:32:35;0.77;;;0.77;;
31724;SDS011;18306;40.960;14.836;2023-11-21T03:35:02;8.10;;;0.85;;
31724;SDS011;18306;40.960;14.836;2023-11-21T03:37:29;3.88;;;1.13;;
31724;SDS011;18306;40.960;14.836;2023-11-21T03:39:57;5.40;;;0.93;;
31724;SDS011;18306;40.960;14.836;2023-11-21T03:42:24;3.17;;;0.93;;
31724;SDS011;18306;40.960;14.836;2023-11-21T03:44:52;1.08;;;0.75;;
31724;SDS011;18306;40.960;14.836;2023-11-21T03:47:20;4.07;;;1.30;;
31724;SDS011;18306;40.960;14.836;2023-11-21T03:49:47;1.52;;;0.77;;
31724;SDS011;18306;40.960;14.836;2023-11-21T03:52:16;1.95;;;0.85;;
31724;SDS011;18306;40.960;14.836;2023-11-21T03:54:43;1.55;;;0.98;;
31724;SDS011;18306;40.960;14.836;2023-11-21T03:57:10;2.05;;;1.30;;
31724;SDS011;18306;40.960;14.836;2023-11-21T03:59:41;2.03;;;1.17;;
31724;SDS011;18306;40.960;14.836;2023-11-21T04:02:08;2.10;;;0.82;;
31724;SDS011;18306;40.960;14.836;2023-11-21T04:04:36;5.55;;;1.48;;
31724;SDS011;18306;40.960;14.836;2023-11-21T04:07:03;2.30;;;1.00;;
31724;SDS011;18306;40.960;14.836;2023-11-21T04:09:30;1.48;;;1.10;;
31724;SDS011;18306;40.960;14.836;2023-11-21T04:11:57;6.40;;;1.55;;
31724;SDS011;18306;40.960;14.836;2023-11-21T04:14:24;2.55;;;1.08;;
31724;SDS011;18306;40.960;14.836;2023-11-21T04:16:51;4.03;;;1.25;;
31724;SDS011;18306;40.960;14.836;2023-11-21T04:19:19;5.53;;;1.58;;
31724;SDS011;18306;40.960;14.836;2023-11-21T04:21:46;1.10;;;1.00;;
31724;SDS011;18306;40.960;14.836;2023-11-21T04:24:13;5.00;;;1.33;;
31724;SDS011;18306;40.960;14.836;2023-11-21T04:26:40;2.05;;;1.17;;
31724;SDS011;18306;40.960;14.836;2023-11-21T04:29:08;0.80;;;0.73;;
31724;SDS011;18306;40.960;14.836;2023-11-21T04:31:38;2.05;;;1.40;;
31724;SDS011;18306;40.960;14.836;2023-11-21T04:34:06;0.93;;;0.88;;
31724;SDS011;18306;40.960;14.836;2023-11-21T04:36:34;1.42;;;0.80;;
31724;SDS011;18306;40.960;14.836;2023-11-21T04:39:01;4.15;;;0.70;;
31724;SDS011;18306;40.960;14.836;2023-11-21T04:41:28;6.53;;;1.08;;
31724;SDS011;18306;40.960;14.836;2023-11-21T04:43:55;5.82;;;1.58;;
31724;SDS011;18306;40.960;14.836;2023-11-21T04:46:22;1.27;;;1.13;;
31724;SDS011;18306;40.960;14.836;2023-11-21T04:48:49;1.40;;;1.10;;
31724;SDS011;18306;40.960;14.836;2023-11-21T04:51:16;2.85;;;0.90;;
31724;SDS011;18306;40.960;14.836;2023-11-21T04:53:43;0.50;;;0.50;;
31724;SDS011;18306;40.960;14.836;2023-11-21T04:56:10;2.38;;;0.80;;
31724;SDS011;18306;40.960;14.836;2023-11-21T04:58:37;1.30;;;0.98;;
31724;SDS011;18306;40.960;14.836;2023-11-21T05:01:07;1.27;;;0.80;;
31724;SDS011;18306;40.960;14.836;2023-11-21T05:03:34;1.08;;;0.70;;
31724;SDS011;18306;40.960;14.836;2023-11-21T05:06:01;2.67;;;1.08;;
31724;SDS011;18306;40.960;14.836;2023-11-21T05:08:31;3.38;;;0.95;;
31724;SDS011;18306;40.960;14.836;2023-11-21T05:10:58;0.95;;;0.60;;
31724;SDS011;18306;40.960;14.836;2023-11-21T05:13:25;2.00;;;1.23;;
31724;SDS011;18306;40.960;14.836;2023-11-21T05:15:54;0.57;;;0.57;;
31724;SDS011;18306;40.960;14.836;2023-11-21T05:18:24;0.88;;;0.77;;
31724;SDS011;18306;40.960;14.836;2023-11-21T05:20:53;1.33;;;0.65;;
31724;SDS011;18306;40.960;14.836;2023-11-21T05:23:20;0.93;;;0.80;;
31724;SDS011;18306;40.960;14.836;2023-11-21T05:25:47;1.33;;;1.00;;
31724;SDS011;18306;40.960;14.836;2023-11-21T05:28:14;5.03;;;1.00;;
31724;SDS011;18306;40.960;14.836;2023-11-21T05:30:41;1.95;;;0.90;;
31724;SDS011;18306;40.960;14.836;2023-11-21T05:33:08;0.80;;;0.60;;
31724;SDS011;18306;40.960;14.836;2023-11-21T05:35:35;1.05;;;0.95;;
31724;SDS011;18306;40.960;14.836;2023-11-21T05:38:02;2.63;;;1.08;;
31724;SDS011;18306;40.960;14.836;2023-11-21T05:40:29;1.10;;;1.00;;
31724;SDS011;18306;40.960;14.836;2023-11-21T05:42:57;4.85;;;0.80;;
31724;SDS011;18306;40.960;14.836;2023-11-21T05:45:24;2.55;;;1.38;;
31724;SDS011;18306;40.960;14.836;2023-11-21T05:47:50;1.48;;;1.02;;
31724;SDS011;18306;40.960;14.836;2023-11-21T05:50:17;0.88;;;0.65;;
31724;SDS011;18306;40.960;14.836;2023-11-21T05:52:45;6.60;;;1.10;;
31724;SDS011;18306;40.960;14.836;2023-11-21T05:55:13;0.75;;;0.75;;
31724;SDS011;18306;40.960;14.836;2023-11-21T05:57:41;3.00;;;0.82;;
31724;SDS011;18306;40.960;14.836;2023-11-21T06:00:10;1.63;;;0.68;;
31724;SDS011;18306;40.960;14.836;2023-11-21T06:02:59;2.30;;;1.05;;
31724;SDS011;18306;40.960;14.836;2023-11-21T06:05:26;1.98;;;0.98;;
31724;SDS011;18306;40.960;14.836;2023-11-21T06:07:54;6.57;;;2.58;;
31724;SDS011;18306;40.960;14.836;2023-11-21T06:10:25;4.70;;;2.25;;
31724;SDS011;18306;40.960;14.836;2023-11-21T06:12:52;15.27;;;6.05;;
31724;SDS011;18306;40.960;14.836;2023-11-21T06:15:20;4.18;;;1.80;;
31724;SDS011;18306;40.960;14.836;2023-11-21T06:17:49;5.28;;;2.03;;
31724;SDS011;18306;40.960;14.836;2023-11-21T06:20:20;1.42;;;1.23;;
31724;SDS011;18306;40.960;14.836;2023-11-21T06:22:49;17.90;;;4.28;;
31724;SDS011;18306;40.960;14.836;2023-11-21T06:25:17;12.85;;;5.35;;
31724;SDS011;18306;40.960;14.836;2023-11-21T06:27:45;18.13;;;7.57;;
31724;SDS011;18306;40.960;14.836;2023-11-21T06:30:13;17.55;;;8.55;;
31724;SDS011;18306;40.960;14.836;2023-11-21T06:32:41;25.65;;;10.23;;
31724;SDS011;18306;40.960;14.836;2023-11-21T06:35:11;11.18;;;3.95;;
31724;SDS011;18306;40.960;14.836;2023-11-21T06:37:39;8.27;;;3.92;;
31724;SDS011;18306;40.960;14.836;2023-11-21T06:40:06;10.93;;;6.38;;
31724;SDS011;18306;40.960;14.836;2023-11-21T06:42:35;12.57;;;6.20;;
31724;SDS011;18306;40.960;14.836;2023-11-21T06:45:04;14.13;;;7.60;;
31724;SDS011;18306;40.960;14.836;2023-11-21T06:47:33;16.52;;;8.70;;
31724;SDS011;18306;40.960;14.836;2023-11-21T06:50:00;13.50;;;5.40;;
31724;SDS011;18306;40.960;14.836;2023-11-21T06:52:27;20.92;;;10.52;;
31724;SDS011;18306;40.960;14.836;2023-11-21T06:54:54;5.53;;;3.35;;
31724;SDS011;18306;40.960;14.836;2023-11-21T06:57:31;12.18;;;4.78;;
31724;SDS011;18306;40.960;14.836;2023-11-21T06:59:58;5.68;;;3.58;;
31724;SDS011;18306;40.960;14.836;2023-11-21T07:02:26;6.50;;;2.85;;
31724;SDS011;18306;40.960;14.836;2023-11-21T07:04:54;21.33;;;8.63;;
31724;SDS011;18306;40.960;14.836;2023-11-21T07:07:22;11.50;;;5.78;;
31724;SDS011;18306;40.960;14.836;2023-11-21T07:09:50;12.98;;;7.55;;
31724;SDS011;18306;40.960;14.836;2023-11-21T07:12:20;7.32;;;4.00;;
31724;SDS011;18306;40.960;14.836;2023-11-21T07:14:50;5.75;;;3.15;;
31724;SDS011;18306;40.960;14.836;2023-11-21T07:17:24;8.63;;;2.67;;
31724;SDS011;18306;40.960;14.836;2023-11-21T07:19:54;6.88;;;2.85;;
31724;SDS011;18306;40.960;14.836;2023-11-21T07:22:21;1.17;;;0.82;;
31724;SDS011;18306;40.960;14.836;2023-11-21T07:24:49;6.25;;;3.15;;
31724;SDS011;18306;40.960;14.836;2023-11-21T07:27:17;3.17;;;1.73;;
31724;SDS011;18306;40.960;14.836;2023-11-21T07:29:45;4.43;;;2.72;;
31724;SDS011;18306;40.960;14.836;2023-11-21T07:32:11;3.38;;;2.15;;
31724;SDS011;18306;40.960;14.836;2023-11-21T07:34:40;2.88;;;2.08;;
31724;SDS011;18306;40.960;14.836;2023-11-21T07:37:07;4.18;;;2.50;;
31724;SDS011;18306;40.960;14.836;2023-11-21T07:39:38;4.15;;;1.95;;
31724;SDS011;18306;40.960;14.836;2023-11-21T07:42:08;3.55;;;1.98;;
31724;SDS011;18306;40.960;14.836;2023-11-21T07:44:39;2.35;;;1.50;;
31724;SDS011;18306;40.960;14.836;2023-11-21T07:47:06;4.00;;;2.33;;
31724;SDS011;18306;40.960;14.836;2023-11-21T07:49:33;3.85;;;2.22;;
31724;SDS011;18306;40.960;14.836;2023-11-21T07:52:00;5.45;;;2.65;;
31724;SDS011;18306;40.960;14.836;2023-11-21T07:54:28;2.25;;;2.05;;
31724;SDS011;18306;40.960;14.836;2023-11-21T07:56:54;6.03;;;1.58;;
31724;SDS011;18306;40.960;14.836;2023-11-21T07:59:22;4.25;;;1.63;;
31724;SDS011;18306;40.960;14.836;2023-11-21T08:01:48;3.97;;;1.55;;
31724;SDS011;18306;40.960;14.836;2023-11-21T08:04:16;11.00;;;2.83;;
31724;SDS011;18306;40.960;14.836;2023-11-21T08:06:43;7.72;;;2.97;;
31724;SDS011;18306;40.960;14.836;2023-11-21T08:09:14;7.03;;;2.92;;
31724;SDS011;18306;40.960;14.836;2023-11-21T08:11:43;1.65;;;1.52;;
31724;SDS011;18306;40.960;14.836;2023-11-21T08:14:10;3.42;;;2.08;;
31724;SDS011;18306;40.960;14.836;2023-11-21T08:16:37;3.13;;;1.70;;
31724;SDS011;18306;40.960;14.836;2023-11-21T08:19:04;5.78;;;1.67;;
31724;SDS011;18306;40.960;14.836;2023-11-21T08:21:32;1.05;;;0.93;;
31724;SDS011;18306;40.960;14.836;2023-11-21T08:24:00;1.55;;;1.23;;
31724;SDS011;18306;40.960;14.836;2023-11-21T08:26:28;2.38;;;1.33;;
31724;SDS011;18306;40.960;14.836;2023-11-21T08:28:55;3.55;;;1.30;;
31724;SDS011;18306;40.960;14.836;2023-11-21T08:31:23;4.10;;;1.50;;
31724;SDS011;18306;40.960;14.836;2023-11-21T08:33:58;1.33;;;0.95;;
31724;SDS011;18306;40.960;14.836;2023-11-21T08:36:29;5.70;;;1.20;;
31724;SDS011;18306;40.960;14.836;2023-11-21T08:39:01;2.53;;;1.40;;
31724;SDS011;18306;40.960;14.836;2023-11-21T08:41:28;4.20;;;1.60;;
31724;SDS011;18306;40.960;14.836;2023-11-21T08:43:56;2.30;;;1.40;;
31724;SDS011;18306;40.960;14.836;2023-11-21T08:46:24;6.35;;;1.20;;
31724;SDS011;18306;40.960;14.836;2023-11-21T08:48:52;0.73;;;0.65;;
31724;SDS011;18306;40.960;14.836;2023-11-21T08:51:19;2.45;;;1.05;;
31724;SDS011;18306;40.960;14.836;2023-11-21T08:53:46;1.25;;;1.05;;
31724;SDS011;18306;40.960;14.836;2023-11-21T08:56:13;2.25;;;0.90;;
31724;SDS011;18306;40.960;14.836;2023-11-21T08:58:40;6.20;;;1.85;;
31724;SDS011;18306;40.960;14.836;2023-11-21T09:01:07;1.95;;;0.82;;
31724;SDS011;18306;40.960;14.836;2023-11-21T09:03:34;5.05;;;1.20;;
31724;SDS011;18306;40.960;14.836;2023-11-21T09:06:01;5.70;;;0.90;;
31724;SDS011;18306;40.960;14.836;2023-11-21T09:08:30;2.83;;;1.33;;
31724;SDS011;18306;40.960;14.836;2023-11-21T09:10:57;4.05;;;0.98;;
31724;SDS011;18306;40.960;14.836;2023-11-21T09:13:24;1.90;;;0.85;;
31724;SDS011;18306;40.960;14.836;2023-11-21T09:15:51;4.38;;;1.55;;
31724;SDS011;18306;40.960;14.836;2023-11-21T09:18:18;3.22;;;1.20;;
31724;SDS011;18306;40.960;14.836;2023-11-21T09:23:44;2.60;;;0.80;;
31724;SDS011;18306;40.960;14.836;2023-11-21T09:26:12;0.85;;;0.75;;
31724;SDS011;18306;40.960;14.836;2023-11-21T09:28:40;13.98;;;1.40;;
31724;SDS011;18306;40.960;14.836;2023-11-21T09:31:12;1.42;;;0.88;;
31724;SDS011;18306;40.960;14.836;2023-11-21T09:33:44;6.25;;;0.93;;
31724;SDS011;18306;40.960;14.836;2023-11-21T09:36:12;6.20;;;1.52;;
31724;SDS011;18306;40.960;14.836;2023-11-21T09:38:42;1.85;;;0.93;;
31724;SDS011;18306;40.960;14.836;2023-11-21T09:41:11;2.05;;;0.70;;
31724;SDS011;18306;40.960;14.836;2023-11-21T09:44:01;1.80;;;0.88;;
31724;SDS011;18306;40.960;14.836;2023-11-21T09:46:34;5.22;;;0.80;;
31724;SDS011;18306;40.960;14.836;2023-11-21T09:49:06;5.97;;;1.30;;
31724;SDS011;18306;40.960;14.836;2023-11-21T09:51:42;1.27;;;0.57;;
31724;SDS011;18306;40.960;14.836;2023-11-21T09:54:13;6.85;;;2.10;;
31724;SDS011;18306;40.960;14.836;2023-11-21T09:56:42;4.53;;;1.83;;
31724;SDS011;18306;40.960;14.836;2023-11-21T09:59:11;5.38;;;2.22;;
31724;SDS011;18306;40.960;14.836;2023-11-21T10:01:40;6.30;;;1.40;;
31724;SDS011;18306;40.960;14.836;2023-11-21T10:04:08;1.77;;;1.10;;
31724;SDS011;18306;40.960;14.836;2023-11-21T10:06:39;4.05;;;2.85;;
31724;SDS011;18306;40.960;14.836;2023-11-21T10:09:09;7.50;;;4.32;;
31724;SDS011;18306;40.960;14.836;2023-11-21T10:11:41;10.65;;;3.63;;
31724;SDS011;18306;40.960;14.836;2023-11-21T10:14:12;6.22;;;3.13;;
31724;SDS011;18306;40.960;14.836;2023-11-21T10:16:40;11.20;;;3.70;;
31724;SDS011;18306;40.960;14.836;2023-11-21T10:19:10;9.52;;;3.25;;
31724;SDS011;18306;40.960;14.836;2023-11-21T10:21:41;4.38;;;3.00;;
31724;SDS011;18306;40.960;14.836;2023-11-21T10:24:09;7.50;;;2.47;;
31724;SDS011;18306;40.960;14.836;2023-11-21T10:26:36;5.22;;;1.58;;
31724;SDS011;18306;40.960;14.836;2023-11-21T10:29:03;6.25;;;2.38;;
31724;SDS011;18306;40.960;14.836;2023-11-21T10:31:31;9.50;;;3.08;;
31724;SDS011;18306;40.960;14.836;2023-11-21T10:36:46;3.35;;;2.50;;
31724;SDS011;18306;40.960;14.836;2023-11-21T10:39:16;1.63;;;1.10;;
31724;SDS011;18306;40.960;14.836;2023-11-21T10:41:45;4.13;;;1.45;;
31724;SDS011;18306;40.960;14.836;2023-11-21T10:44:14;4.90;;;2.13;;
31724;SDS011;18306;40.960;14.836;2023-11-21T10:46:53;7.03;;;3.38;;
31724;SDS011;18306;40.960;14.836;2023-11-21T10:51:53;4.45;;;2.75;;
31724;SDS011;18306;40.960;14.836;2023-11-21T10:54:22;5.25;;;3.38;;
31724;SDS011;18306;40.960;14.836;2023-11-21T10:56:58;7.13;;;2.33;;
31724;SDS011;18306;40.960;14.836;2023-11-21T10:59:30;3.85;;;2.33;;
31724;SDS011;18306;40.960;14.836;2023-11-21T11:02:01;8.68;;;3.15;;
31724;SDS011;18306;40.960;14.836;2023-11-21T11:04:37;5.38;;;2.15;;
31724;SDS011;18306;40.960;14.836;2023-11-21T11:07:07;1.63;;;1.17;;
31724;SDS011;18306;40.960;14.836;2023-11-21T11:09:38;5.45;;;2.67;;
31724;SDS011;18306;40.960;14.836;2023-11-21T11:12:06;4.10;;;2.05;;
31724;SDS011;18306;40.960;14.836;2023-11-21T11:14:36;8.02;;;2.20;;
31724;SDS011;18306;40.960;14.836;2023-11-21T11:17:07;4.70;;;1.73;;
31724;SDS011;18306;40.960;14.836;2023-11-21T11:19:35;7.93;;;1.90;;
31724;SDS011;18306;40.960;14.836;2023-11-21T11:27:44;4.85;;;2.47;;
31724;SDS011;18306;40.960;14.836;2023-11-21T11:30:25;3.25;;;2.03;;
31724;SDS011;18306;40.960;14.836;2023-11-21T11:38:15;4.68;;;2.38;;
31724;SDS011;18306;40.960;14.836;2023-11-21T11:40:46;7.05;;;1.75;;
31724;SDS011;18306;40.960;14.836;2023-11-21T11:43:16;3.22;;;1.38;;
31724;SDS011;18306;40.960;14.836;2023-11-21T11:45:52;7.40;;;3.17;;
31724;SDS011;18306;40.960;14.836;2023-11-21T11:48:22;8.07;;;2.83;;
31724;SDS011;18306;40.960;14.836;2023-11-21T11:53:37;2.13;;;1.35;;
31724;SDS011;18306;40.960;14.836;2023-11-21T11:59:10;2.40;;;1.35;;
31724;SDS011;18306;40.960;14.836;2023-11-21T12:02:05;5.10;;;1.58;;
31724;SDS011;18306;40.960;14.836;2023-11-21T12:04:41;1.88;;;1.40;;
31724;SDS011;18306;40.960;14.836;2023-11-21T12:07:08;4.38;;;1.20;;
31724;SDS011;18306;40.960;14.836;2023-11-21T12:09:35;2.65;;;1.63;;
31724;SDS011;18306;40.960;14.836;2023-11-21T12:12:04;4.70;;;1.60;;
31724;SDS011;18306;40.960;14.836;2023-11-21T12:14:32;5.15;;;1.10;;
31724;SDS011;18306;40.960;14.836;2023-11-21T12:16:59;3.40;;;2.10;;
31724;SDS011;18306;40.960;14.836;2023-11-21T12:19:27;1.23;;;1.05;;
31724;SDS011;18306;40.960;14.836;2023-11-21T12:21:54;4.13;;;2.03;;
31724;SDS011;18306;40.960;14.836;2023-11-21T12:24:22;8.27;;;1.77;;
31724;SDS011;18306;40.960;14.836;2023-11-21T12:26:49;2.38;;;1.20;;
31724;SDS011;18306;40.960;14.836;2023-11-21T12:29:25;3.50;;;1.48;;
31724;SDS011;18306;40.960;14.836;2023-11-21T12:31:52;1.65;;;1.15;;
31724;SDS011;18306;40.960;14.836;2023-11-21T12:34:21;4.82;;;1.20;;
31724;SDS011;18306;40.960;14.836;2023-11-21T12:36:49;1.05;;;0.88;;
31724;SDS011;18306;40.960;14.836;2023-11-21T12:39:26;9.00;;;1.80;;
31724;SDS011;18306;40.960;14.836;2023-11-21T12:42:01;1.38;;;1.25;;
31724;SDS011;18306;40.960;14.836;2023-11-21T12:44:38;3.15;;;2.00;;
31724;SDS011;18306;40.960;14.836;2023-11-21T12:47:08;15.75;;;5.38;;
31724;SDS011;18306;40.960;14.836;2023-11-21T12:49:37;7.47;;;3.17;;
31724;SDS011;18306;40.960;14.836;2023-11-21T12:52:05;8.82;;;3.67;;
31724;SDS011;18306;40.960;14.836;2023-11-21T12:54:35;4.10;;;2.67;;
31724;SDS011;18306;40.960;14.836;2023-11-21T12:57:07;6.00;;;2.55;;
31724;SDS011;18306;40.960;14.836;2023-11-21T12:59:34;7.28;;;3.50;;
31724;SDS011;18306;40.960;14.836;2023-11-21T13:02:03;3.53;;;1.80;;
31724;SDS011;18306;40.960;14.836;2023-11-21T13:04:34;2.58;;;1.17;;
31724;SDS011;18306;40.960;14.836;2023-11-21T13:07:03;3.40;;;1.77;;
31724;SDS011;18306;40.960;14.836;2023-11-21T13:09:53;5.15;;;1.75;;
31724;SDS011;18306;40.960;14.836;2023-11-21T13:12:25;1.85;;;1.23;;
31724;SDS011;18306;40.960;14.836;2023-11-21T13:15:03;5.82;;;2.25;;
31724;SDS011;18306;40.960;14.836;2023-11-21T13:17:34;2.70;;;1.15;;
31724;SDS011;18306;40.960;14.836;2023-11-21T13:20:01;2.20;;;1.80;;
31724;SDS011;18306;40.960;14.836;2023-11-21T13:22:32;1.90;;;1.48;;
31724;SDS011;18306;40.960;14.836;2023-11-21T13:24:59;3.97;;;1.83;;
31724;SDS011;18306;40.960;14.836;2023-11-21T13:27:26;3.25;;;2.05;;
31724;SDS011;18306;40.960;14.836;2023-11-21T13:29:53;6.20;;;1.70;;
31724;SDS011;18306;40.960;14.836;2023-11-21T13:32:20;3.17;;;1.63;;
31724;SDS011;18306;40.960;14.836;2023-11-21T13:34:48;6.80;;;2.05;;
31724;SDS011;18306;40.960;14.836;2023-11-21T13:37:19;3.55;;;1.77;;
31724;SDS011;18306;40.960;14.836;2023-11-21T13:39:46;5.90;;;1.77;;
31724;SDS011;18306;40.960;14.836;2023-11-21T13:42:16;3.55;;;1.77;;
31724;SDS011;18306;40.960;14.836;2023-11-21T13:44:44;3.47;;;1.98;;
31724;SDS011;18306;40.960;14.836;2023-11-21T13:47:14;3.85;;;1.52;;
31724;SDS011;18306;40.960;14.836;2023-11-21T13:49:41;7.47;;;2.38;;
31724;SDS011;18306;40.960;14.836;2023-11-21T13:52:09;5.85;;;3.22;;
31724;SDS011;18306;40.960;14.836;2023-11-21T13:54:41;5.10;;;1.98;;
31724;SDS011;18306;40.960;14.836;2023-11-21T13:57:08;8.05;;;2.08;;
31724;SDS011;18306;40.960;14.836;2023-11-21T13:59:35;5.75;;;3.25;;
31724;SDS011;18306;40.960;14.836;2023-11-21T14:02:03;8.10;;;2.17;;
31724;SDS011;18306;40.960;14.836;2023-11-21T14:04:44;5.85;;;2.65;;
31724;SDS011;18306;40.960;14.836;2023-11-21T14:07:19;3.28;;;2.33;;
31724;SDS011;18306;40.960;14.836;2023-11-21T14:09:58;4.07;;;1.95;;
31724;SDS011;18306;40.960;14.836;2023-11-21T14:12:25;3.63;;;2.05;;
31724;SDS011;18306;40.960;14.836;2023-11-21T14:14:52;2.72;;;1.75;;
31724;SDS011;18306;40.960;14.836;2023-11-21T14:17:20;4.80;;;2.20;;
31724;SDS011;18306;40.960;14.836;2023-11-21T14:19:50;4.13;;;1.63;;
31724;SDS011;18306;40.960;14.836;2023-11-21T14:22:17;9.30;;;2.45;;
31724;SDS011;18306;40.960;14.836;2023-11-21T14:24:44;7.72;;;3.25;;
31724;SDS011;18306;40.960;14.836;2023-11-21T14:27:13;4.57;;;1.95;;
31724;SDS011;18306;40.960;14.836;2023-11-21T14:29:41;2.72;;;1.83;;
31724;SDS011;18306;40.960;14.836;2023-11-21T14:32:15;6.03;;;1.60;;
31724;SDS011;18306;40.960;14.836;2023-11-21T14:34:49;3.08;;;1.55;;
31724;SDS011;18306;40.960;14.836;2023-11-21T14:37:19;3.58;;;2.00;;
31724;SDS011;18306;40.960;14.836;2023-11-21T14:39:52;1.60;;;1.50;;
31724;SDS011;18306;40.960;14.836;2023-11-21T14:42:20;6.38;;;2.13;;
31724;SDS011;18306;40.960;14.836;2023-11-21T14:44:51;2.45;;;1.77;;
31724;SDS011;18306;40.960;14.836;2023-11-21T14:47:18;3.63;;;2.05;;
31724;SDS011;18306;40.960;14.836;2023-11-21T14:49:51;4.28;;;2.15;;
31724;SDS011;18306;40.960;14.836;2023-11-21T14:52:19;3.65;;;2.45;;
31724;SDS011;18306;40.960;14.836;2023-11-21T14:54:59;6.15;;;3.03;;
31724;SDS011;18306;40.960;14.836;2023-11-21T14:57:52;5.80;;;1.73;;
31724;SDS011;18306;40.960;14.836;2023-11-21T15:00:20;4.72;;;1.80;;
31724;SDS011;18306;40.960;14.836;2023-11-21T15:02:59;3.70;;;2.10;;
31724;SDS011;18306;40.960;14.836;2023-11-21T15:05:27;3.17;;;1.88;;
31724;SDS011;18306;40.960;14.836;2023-11-21T15:07:55;3.78;;;1.15;;